createdAt,value
2023-05-09T00:00:51.983Z,70.35
2023-05-09T00:03:19.071Z,70.55
2023-05-09T00:05:46.207Z,70.44
2023-05-09T00:08:13.719Z,70.30
2023-05-09T00:10:40.772Z,69.86
2023-05-09T00:13:07.980Z,69.46
2023-05-09T00:15:35.673Z,71.36
2023-05-09T00:18:02.715Z,70.60
2023-05-09T00:20:29.674Z,71.26
2023-05-09T00:22:56.817Z,71.33
2023-05-09T00:25:23.884Z,71.31
2023-05-09T00:27:50.955Z,71.60
2023-05-09T00:30:18.124Z,71.77
2023-05-09T00:32:45.224Z,71.84
2023-05-09T00:35:12.481Z,70.52
2023-05-09T00:37:40.037Z,69.85
2023-05-09T00:40:09.128Z,70.72
2023-05-09T00:42:36.657Z,72.60
2023-05-09T00:45:04.006Z,71.02
2023-05-09T00:47:31.259Z,72.82
2023-05-09T00:49:59.354Z,71.76
2023-05-09T00:52:27.164Z,72.36
2023-05-09T00:54:55.960Z,71.90
2023-05-09T00:57:23.353Z,71.40
2023-05-09T00:59:50.762Z,70.57
2023-05-09T01:02:18.707Z,71.30
2023-05-09T01:04:47.021Z,70.58
2023-05-09T01:07:41.053Z,70.54
2023-05-09T01:10:31.348Z,69.46
2023-05-09T01:13:09.832Z,70.19
2023-05-09T01:15:46.942Z,71.78
2023-05-09T01:18:30.187Z,72.04
2023-05-09T01:21:08.658Z,72.55
2023-05-09T01:23:44.368Z,70.73
2023-05-09T01:26:21.677Z,71.30
2023-05-09T01:29:32.453Z,70.75
2023-05-09T01:32:10.610Z,69.99
2023-05-09T01:34:40.703Z,70.65
2023-05-09T01:37:08.239Z,70.63
2023-05-09T01:39:41.469Z,70.77
2023-05-09T01:42:11.120Z,71.40
2023-05-09T01:44:41.113Z,71.48
2023-05-09T01:47:09.429Z,71.08
2023-05-09T01:49:38.833Z,72.79
2023-05-09T01:52:13.539Z,71.54
2023-05-09T01:54:41.533Z,72.05
2023-05-09T01:57:10.715Z,71.97
2023-05-09T01:59:44.450Z,71.36
2023-05-09T02:02:12.120Z,73.35
2023-05-09T02:04:42.291Z,72.26
2023-05-09T02:07:10.792Z,72.10
2023-05-09T02:09:37.839Z,70.57
2023-05-09T02:12:05.120Z,70.51
2023-05-09T02:14:32.488Z,71.19
2023-05-09T02:17:06.852Z,71.71
2023-05-09T02:19:35.698Z,72.86
2023-05-09T02:22:05.163Z,72.03
2023-05-09T02:24:34.272Z,71.52
2023-05-09T02:27:03.390Z,71.58
2023-05-09T02:29:40.691Z,72.00
2023-05-09T02:32:16.828Z,72.72
2023-05-09T02:34:45.469Z,73.34
2023-05-09T02:37:13.872Z,72.18
2023-05-09T02:39:40.885Z,71.67
2023-05-09T02:42:11.546Z,70.86
2023-05-09T02:44:41.582Z,70.73
2023-05-09T02:47:08.676Z,71.58
2023-05-09T02:49:36.118Z,71.84
2023-05-09T02:52:05.250Z,71.00
2023-05-09T02:54:32.646Z,70.96
2023-05-09T02:56:59.594Z,72.42
2023-05-09T02:59:26.658Z,71.48
2023-05-09T03:01:54.005Z,72.16
2023-05-09T03:04:21.750Z,72.38
2023-05-09T03:06:48.706Z,71.68
2023-05-09T03:09:15.722Z,71.77
2023-05-09T03:11:42.746Z,71.29
2023-05-09T03:14:10.729Z,71.42
2023-05-09T03:16:38.277Z,71.64
2023-05-09T03:19:09.941Z,71.03
2023-05-09T03:21:36.929Z,72.38
2023-05-09T03:24:04.861Z,71.69
2023-05-09T03:26:31.886Z,72.08
2023-05-09T03:28:59.449Z,73.16
2023-05-09T03:31:26.788Z,72.54
2023-05-09T03:33:53.794Z,73.19
2023-05-09T03:36:21.460Z,72.28
2023-05-09T03:38:48.569Z,72.05
2023-05-09T03:41:18.035Z,71.54
2023-05-09T03:43:47.370Z,73.60
2023-05-09T03:46:14.507Z,71.74
2023-05-09T03:48:44.353Z,73.21
2023-05-09T03:51:11.772Z,73.58
2023-05-09T03:53:41.429Z,72.15
2023-05-09T03:56:09.575Z,71.90
2023-05-09T03:58:44.179Z,71.98
2023-05-09T04:01:12.123Z,72.25
2023-05-09T04:03:40.454Z,72.58
2023-05-09T04:06:08.299Z,73.65
2023-05-09T04:08:38.918Z,72.62
2023-05-09T04:11:06.073Z,72.89
2023-05-09T04:13:34.155Z,71.95
2023-05-09T04:16:06.224Z,73.33
2023-05-09T04:18:34.359Z,73.76
2023-05-09T04:21:01.416Z,72.12
2023-05-09T04:23:28.538Z,73.38
2023-05-09T04:25:58.515Z,72.46
2023-05-09T04:28:25.540Z,72.73
2023-05-09T04:30:52.802Z,72.91
2023-05-09T04:33:21.341Z,72.98
2023-05-09T04:35:48.786Z,72.84
2023-05-09T04:38:16.585Z,72.18
2023-05-09T04:40:43.786Z,71.94
2023-05-09T04:43:11.436Z,71.96
2023-05-09T04:45:38.499Z,72.09
2023-05-09T04:48:05.786Z,71.95
2023-05-09T04:50:32.883Z,72.35
2023-05-09T04:52:59.848Z,74.40
2023-05-09T04:55:27.447Z,71.70
2023-05-09T04:57:55.904Z,72.05
2023-05-09T05:00:22.891Z,72.48
2023-05-09T05:02:49.974Z,74.59
2023-05-09T05:05:17.782Z,73.02
2023-05-09T05:07:44.962Z,75.13
2023-05-09T05:10:16.911Z,74.68
2023-05-09T05:12:48.225Z,74.70
2023-05-09T05:15:16.062Z,74.21
2023-05-09T05:17:45.574Z,73.03
2023-05-09T05:20:12.965Z,73.18
2023-05-09T05:22:44.708Z,72.92
2023-05-09T05:25:13.313Z,73.51
2023-05-09T05:27:41.261Z,73.96
2023-05-09T05:30:11.353Z,73.68
2023-05-09T05:32:38.377Z,73.63
2023-05-09T05:35:06.240Z,73.44
2023-05-09T05:37:36.530Z,73.51
2023-05-09T05:40:03.829Z,73.87
2023-05-09T05:42:31.708Z,73.87
2023-05-09T05:45:04.258Z,74.35
2023-05-09T05:47:37.376Z,75.66
2023-05-09T05:50:11.825Z,75.26
2023-05-09T05:52:39.993Z,75.49
2023-05-09T05:55:08.533Z,74.66
2023-05-09T05:57:37.614Z,74.21
2023-05-09T06:00:12.177Z,76.41
2023-05-09T06:02:47.865Z,76.13
2023-05-09T06:05:22.175Z,76.26
2023-05-09T06:07:50.402Z,75.99
2023-05-09T06:10:17.690Z,74.43
2023-05-09T06:12:45.910Z,74.83
2023-05-09T06:15:13.532Z,75.14
2023-05-09T06:17:44.890Z,74.92
2023-05-09T06:20:11.895Z,75.88
2023-05-09T06:22:38.933Z,76.95
2023-05-09T06:25:08.674Z,76.35
2023-05-09T06:27:38.673Z,75.24
2023-05-09T06:30:23.838Z,75.16
2023-05-09T06:32:52.320Z,75.85
2023-05-09T06:35:19.516Z,75.68
2023-05-09T06:37:48.437Z,77.10
2023-05-09T06:40:16.427Z,76.02
2023-05-09T06:42:43.537Z,76.36
2023-05-09T06:45:11.443Z,76.19
2023-05-09T06:47:38.537Z,76.05
2023-05-09T06:50:06.380Z,76.09
2023-05-09T06:52:33.339Z,75.13
2023-05-09T06:55:00.422Z,75.49
2023-05-09T06:57:27.402Z,74.57
2023-05-09T06:59:54.337Z,74.72
2023-05-09T07:02:21.299Z,75.18
2023-05-09T07:04:49.290Z,75.01
2023-05-09T07:07:19.167Z,75.60
2023-05-09T07:09:46.158Z,75.94
2023-05-09T07:12:19.435Z,75.25
2023-05-09T07:14:46.394Z,74.81
2023-05-09T07:17:22.796Z,74.88
2023-05-09T07:19:51.667Z,74.71
2023-05-09T07:22:18.840Z,74.88
2023-05-09T07:24:46.403Z,74.18
2023-05-09T07:27:13.462Z,74.53
2023-05-09T07:29:40.543Z,75.07
2023-05-09T07:32:07.930Z,74.89
2023-05-09T07:34:36.420Z,75.07
2023-05-09T07:37:03.618Z,75.54
2023-05-09T07:39:30.628Z,75.56
2023-05-09T07:41:57.550Z,75.68
2023-05-09T07:44:24.619Z,76.05
2023-05-09T07:46:51.693Z,76.70
2023-05-09T07:49:18.740Z,75.95
2023-05-09T07:51:45.810Z,76.07
2023-05-09T07:54:13.052Z,76.02
2023-05-09T07:56:40.033Z,75.93
2023-05-09T07:59:06.969Z,75.91
2023-05-09T08:01:33.962Z,75.85
2023-05-09T08:04:01.127Z,75.81
2023-05-09T08:06:28.256Z,75.74
2023-05-09T08:08:55.273Z,75.99
2023-05-09T08:11:22.671Z,75.79
2023-05-09T08:13:50.271Z,75.88
2023-05-09T08:16:17.547Z,75.31
2023-05-09T08:18:44.877Z,75.64
2023-05-09T08:21:12.087Z,75.57
2023-05-09T08:23:40.524Z,75.50
2023-05-09T08:26:07.497Z,75.13
2023-05-09T08:28:34.536Z,75.51
2023-05-09T08:31:01.556Z,75.03
2023-05-09T08:33:28.653Z,75.14
2023-05-09T08:35:56.291Z,75.22
2023-05-09T08:38:24.291Z,75.16
2023-05-09T08:40:51.406Z,75.27
2023-05-09T08:43:23.158Z,75.03
2023-05-09T08:46:03.346Z,75.10
2023-05-09T08:48:31.173Z,75.14
2023-05-09T08:50:58.845Z,75.15
2023-05-09T08:53:26.677Z,74.94
2023-05-09T08:55:54.228Z,75.08
2023-05-09T08:58:22.769Z,74.79
2023-05-09T09:00:50.702Z,75.06
2023-05-09T09:03:18.416Z,75.28
2023-05-09T09:05:46.830Z,75.02
2023-05-09T09:08:15.011Z,75.21
2023-05-09T09:10:46.899Z,75.41
2023-05-09T09:13:15.562Z,75.12
2023-05-09T09:15:46.841Z,75.18
2023-05-09T09:18:23.180Z,74.76
2023-05-09T09:21:09.347Z,75.16
2023-05-09T09:23:39.409Z,74.67
2023-05-09T09:26:06.447Z,74.69
2023-05-09T09:28:34.609Z,74.45
2023-05-09T09:31:02.008Z,74.47
2023-05-09T09:33:29.709Z,74.42
2023-05-09T09:35:57.427Z,73.21
2023-05-09T09:38:25.005Z,72.92
2023-05-09T09:40:51.865Z,73.42
2023-05-09T09:43:19.096Z,73.44
2023-05-09T09:45:53.713Z,73.38
2023-05-09T09:48:30.675Z,73.62
2023-05-09T09:50:57.595Z,73.13
2023-05-09T09:53:30.130Z,72.99
2023-05-09T09:55:57.252Z,72.86
2023-05-09T09:58:25.454Z,72.51
2023-05-09T10:01:13.999Z,72.08
2023-05-09T10:03:44.926Z,73.10
2023-05-09T10:06:16.382Z,73.32
2023-05-09T10:08:47.135Z,72.76
2023-05-09T10:11:15.300Z,72.86
2023-05-09T10:13:43.677Z,72.00
2023-05-09T10:16:12.700Z,72.60
2023-05-09T10:18:42.245Z,72.13
2023-05-09T10:21:14.373Z,72.35
2023-05-09T10:23:47.074Z,71.05
2023-05-09T10:26:23.498Z,72.42
2023-05-09T10:29:00.284Z,71.77
2023-05-09T10:31:30.899Z,71.00
2023-05-09T10:34:05.313Z,71.40
2023-05-09T10:36:33.076Z,71.54
2023-05-09T10:39:01.123Z,71.15
2023-05-09T10:41:28.348Z,70.88
2023-05-09T10:43:59.720Z,71.12
2023-05-09T10:46:27.656Z,69.50
2023-05-09T10:48:55.349Z,70.19
2023-05-09T10:51:24.479Z,68.94
2023-05-09T10:53:52.086Z,68.83
2023-05-09T10:56:31.701Z,69.13
2023-05-09T10:59:00.039Z,69.72
2023-05-09T11:01:37.830Z,69.88
2023-05-09T11:04:17.021Z,70.47
2023-05-09T11:06:55.054Z,69.96
2023-05-09T11:09:38.085Z,69.03
2023-05-09T11:12:05.507Z,68.84
2023-05-09T11:14:44.877Z,66.90
2023-05-09T11:17:21.732Z,67.60
2023-05-09T11:19:49.020Z,66.22
2023-05-09T11:22:41.313Z,67.03
2023-05-09T11:25:14.569Z,67.26
2023-05-09T11:27:49.907Z,67.72
2023-05-09T11:30:19.632Z,67.12
2023-05-09T11:32:58.785Z,66.06
2023-05-09T11:35:26.859Z,65.98
2023-05-09T11:38:06.406Z,65.72
2023-05-09T11:40:34.948Z,65.22
2023-05-09T11:43:02.554Z,65.22
2023-05-09T11:45:32.384Z,65.33
2023-05-09T11:48:01.083Z,65.41
2023-05-09T11:50:29.280Z,65.39
2023-05-09T11:52:56.272Z,65.65
2023-05-09T11:55:25.071Z,64.85
2023-05-09T11:57:54.119Z,64.73
2023-05-09T12:00:24.229Z,65.49
2023-05-09T12:02:53.093Z,65.13
2023-05-09T12:05:23.152Z,64.28
2023-05-09T12:07:50.980Z,63.31
2023-05-09T12:10:23.193Z,64.33
2023-05-09T12:12:52.832Z,63.95
2023-05-09T12:15:21.561Z,64.21
2023-05-09T12:18:05.932Z,64.27
2023-05-09T12:20:52.809Z,63.46
2023-05-09T12:23:20.460Z,63.76
2023-05-09T12:25:55.905Z,63.90
2023-05-09T12:28:26.678Z,64.00
2023-05-09T12:30:54.621Z,64.08
2023-05-09T12:33:22.323Z,63.40
2023-05-09T12:36:10.122Z,63.24
2023-05-09T12:38:37.995Z,63.40
2023-05-09T12:41:10.741Z,63.49
2023-05-09T12:43:49.339Z,63.85
2023-05-09T12:46:20.674Z,64.41
2023-05-09T12:48:49.368Z,63.63
2023-05-09T12:51:21.732Z,63.85
2023-05-09T12:53:49.058Z,63.79
2023-05-09T12:56:23.276Z,64.05
2023-05-09T12:58:55.293Z,64.89
2023-05-09T13:01:28.793Z,66.48
2023-05-09T13:04:05.672Z,67.97
2023-05-09T13:06:33.014Z,68.88
2023-05-09T13:09:05.928Z,69.41
2023-05-09T13:11:33.005Z,69.94
2023-05-09T13:14:00.343Z,69.69
2023-05-09T13:16:27.626Z,69.66
2023-05-09T13:18:54.592Z,70.09
2023-05-09T13:21:21.679Z,69.67
2023-05-09T13:23:50.003Z,70.02
2023-05-09T13:26:17.006Z,69.36
2023-05-09T13:28:44.003Z,68.75
2023-05-09T13:31:11.039Z,68.96
2023-05-09T13:33:38.130Z,68.66
2023-05-09T13:36:06.174Z,68.56
2023-05-09T13:38:36.773Z,67.82
2023-05-09T13:41:03.836Z,68.20
2023-05-09T13:43:30.805Z,68.17
2023-05-09T13:45:57.789Z,68.42
2023-05-09T13:48:24.790Z,68.63
2023-05-09T13:50:51.814Z,68.91
2023-05-09T13:53:18.919Z,69.15
2023-05-09T13:55:46.299Z,68.98
2023-05-09T13:58:13.336Z,69.20
2023-05-09T14:00:40.636Z,69.44
2023-05-09T14:03:07.684Z,69.56
2023-05-09T14:05:34.740Z,69.18
2023-05-09T14:08:01.817Z,68.73
2023-05-09T14:10:28.958Z,68.17
2023-05-09T14:12:56.372Z,67.40
2023-05-09T14:15:24.360Z,67.06
2023-05-09T14:17:51.384Z,66.25
2023-05-09T14:20:18.545Z,66.67
2023-05-09T14:22:46.430Z,66.56
2023-05-09T14:25:13.442Z,65.94
2023-05-09T14:27:40.379Z,65.59
2023-05-09T14:30:10.232Z,65.77
2023-05-09T14:32:37.193Z,65.75
2023-05-09T14:35:04.590Z,65.53
2023-05-09T14:37:31.914Z,65.54
2023-05-09T14:40:05.213Z,65.79
2023-05-09T14:42:32.839Z,65.42
2023-05-09T14:44:59.914Z,65.59
2023-05-09T14:47:27.011Z,65.50
2023-05-09T14:49:54.092Z,65.32
2023-05-09T14:52:21.056Z,65.53
2023-05-09T14:54:48.039Z,65.01
2023-05-09T14:57:15.038Z,65.10
2023-05-09T14:59:42.179Z,65.12
2023-05-09T15:02:09.134Z,65.25
2023-05-09T15:04:36.126Z,65.53
2023-05-09T15:07:03.048Z,65.65
2023-05-09T15:09:29.960Z,65.18
2023-05-09T15:11:56.891Z,65.39
2023-05-09T15:14:23.876Z,65.00
2023-05-09T15:16:52.201Z,65.09
2023-05-09T15:19:19.474Z,65.06
2023-05-09T15:21:46.439Z,65.27
2023-05-09T15:24:13.494Z,65.24
2023-05-09T15:26:40.455Z,65.12
2023-05-09T15:29:07.440Z,65.25
2023-05-09T15:31:36.787Z,65.13
2023-05-09T15:34:03.861Z,65.20
2023-05-09T15:36:32.052Z,65.28
2023-05-09T15:38:59.470Z,65.56
2023-05-09T15:41:27.138Z,65.80
2023-05-09T15:43:54.045Z,65.78
2023-05-09T15:46:21.808Z,65.48
2023-05-09T15:48:48.795Z,65.72
2023-05-09T15:51:16.336Z,65.29
2023-05-09T15:53:43.402Z,65.59
2023-05-09T15:56:10.503Z,65.54
2023-05-09T15:58:37.640Z,66.00
2023-05-09T16:01:07.755Z,65.91
2023-05-09T16:03:35.050Z,65.61
2023-05-09T16:06:02.237Z,66.17
2023-05-09T16:08:29.200Z,66.50
2023-05-09T16:10:56.337Z,65.89
2023-05-09T16:13:23.733Z,66.02
2023-05-09T16:15:51.134Z,66.00
2023-05-09T16:18:18.639Z,65.65
2023-05-09T16:20:45.637Z,66.03
2023-05-09T16:23:13.066Z,65.69
2023-05-09T16:25:40.134Z,66.29
2023-05-09T16:28:08.213Z,66.22
2023-05-09T16:30:35.304Z,65.92
2023-05-09T16:33:02.524Z,65.62
2023-05-09T16:35:29.622Z,65.81
2023-05-09T16:37:56.783Z,65.55
2023-05-09T16:40:23.813Z,66.03
2023-05-09T16:42:50.882Z,65.92
2023-05-09T16:45:17.946Z,65.43
2023-05-09T16:47:50.971Z,65.69
2023-05-09T16:50:18.163Z,65.30
2023-05-09T16:52:45.546Z,66.01
2023-05-09T16:55:12.772Z,66.82
2023-05-09T16:57:39.832Z,65.85
2023-05-09T17:00:08.005Z,65.77
2023-05-09T17:02:36.253Z,66.03
2023-05-09T17:05:04.667Z,65.73
2023-05-09T17:07:32.176Z,65.86
2023-05-09T17:09:59.477Z,66.05
2023-05-09T17:12:27.455Z,66.00
2023-05-09T17:14:54.414Z,66.45
2023-05-09T17:17:21.330Z,66.16
2023-05-09T17:19:48.401Z,66.60
2023-05-09T17:22:15.386Z,66.27
2023-05-09T17:24:42.366Z,65.86
2023-05-09T17:27:10.793Z,66.02
2023-05-09T17:29:37.901Z,65.93
2023-05-09T17:32:05.095Z,66.01
2023-05-09T17:34:32.298Z,65.97
2023-05-09T17:37:01.935Z,66.56
2023-05-09T17:39:28.938Z,66.27
2023-05-09T17:41:55.896Z,66.54
2023-05-09T17:44:22.846Z,66.30
2023-05-09T17:46:50.843Z,66.05
2023-05-09T17:49:20.326Z,66.97
2023-05-09T17:51:47.266Z,66.28
2023-05-09T17:54:14.412Z,66.05
2023-05-09T17:56:41.544Z,67.29
2023-05-09T17:59:08.519Z,67.12
2023-05-09T18:01:35.613Z,66.10
2023-05-09T18:04:02.854Z,66.65
2023-05-09T18:06:29.834Z,66.59
2023-05-09T18:08:56.814Z,65.97
2023-05-09T18:11:24.503Z,67.29
2023-05-09T18:13:51.459Z,67.55
2023-05-09T18:16:18.418Z,68.30
2023-05-09T18:18:45.465Z,68.93
2023-05-09T18:21:12.484Z,68.34
2023-05-09T18:23:39.947Z,68.88
2023-05-09T18:26:07.714Z,69.64
2023-05-09T18:28:39.409Z,68.25
2023-05-09T18:31:09.410Z,69.02
2023-05-09T18:33:39.291Z,68.86
2023-05-09T18:36:10.940Z,69.77
2023-05-09T18:38:39.299Z,68.19
2023-05-09T18:41:08.426Z,68.47
2023-05-09T18:43:36.952Z,69.40
2023-05-09T18:46:05.039Z,68.52
2023-05-09T18:48:33.384Z,68.26
2023-05-09T18:51:00.370Z,67.99
2023-05-09T18:53:28.738Z,68.28
2023-05-09T18:55:56.728Z,67.24
2023-05-09T18:58:24.630Z,68.53
2023-05-09T19:00:52.829Z,67.60
2023-05-09T19:03:20.737Z,68.11
2023-05-09T19:05:47.665Z,67.68
2023-05-09T19:08:14.759Z,67.80
2023-05-09T19:10:42.520Z,67.37
2023-05-09T19:13:09.701Z,67.27
2023-05-09T19:15:37.326Z,68.57
2023-05-09T19:18:05.222Z,69.04
2023-05-09T19:20:32.666Z,68.39
2023-05-09T19:22:59.875Z,67.82
2023-05-09T19:25:33.547Z,68.57
2023-05-09T19:28:00.646Z,68.24
2023-05-09T19:30:27.715Z,68.28
2023-05-09T19:32:54.887Z,68.49
2023-05-09T19:35:22.065Z,68.34
2023-05-09T19:37:49.267Z,68.81
2023-05-09T19:40:17.766Z,68.96
2023-05-09T19:42:45.192Z,68.79
2023-05-09T19:45:12.458Z,68.69
2023-05-09T19:47:39.574Z,69.05
2023-05-09T19:50:07.703Z,69.18
2023-05-09T19:52:37.008Z,69.27
2023-05-09T19:55:05.998Z,68.39
2023-05-09T19:57:33.554Z,69.34
2023-05-09T20:00:00.472Z,69.13
2023-05-09T20:02:27.521Z,68.58
2023-05-09T20:04:54.735Z,68.89
2023-05-09T20:07:21.747Z,68.19
2023-05-09T20:09:48.755Z,68.75
2023-05-09T20:12:16.651Z,69.09
2023-05-09T20:14:44.299Z,68.81
2023-05-09T20:17:11.272Z,68.91
2023-05-09T20:19:38.311Z,68.83
2023-05-09T20:22:06.509Z,68.35
2023-05-09T20:24:33.814Z,68.61
2023-05-09T20:27:02.575Z,69.96
2023-05-09T20:29:29.834Z,69.71
2023-05-09T20:32:00.033Z,69.33
2023-05-09T20:34:27.227Z,69.22
2023-05-09T20:36:55.035Z,69.33
2023-05-09T20:39:23.017Z,69.27
2023-05-09T20:41:50.678Z,69.22
2023-05-09T20:44:19.021Z,68.97
2023-05-09T20:46:46.144Z,68.76
2023-05-09T20:49:13.197Z,68.81
2023-05-09T20:51:40.785Z,69.53
2023-05-09T20:54:07.968Z,69.32
2023-05-09T20:56:35.644Z,69.70
2023-05-09T20:59:04.224Z,68.88
2023-05-09T21:01:35.346Z,69.61
2023-05-09T21:04:08.217Z,69.57
2023-05-09T21:06:36.660Z,70.35
2023-05-09T21:09:05.646Z,69.85
2023-05-09T21:11:32.687Z,69.78
2023-05-09T21:13:59.660Z,69.85
2023-05-09T21:16:27.943Z,69.94
2023-05-09T21:18:54.950Z,69.82
2023-05-09T21:21:22.295Z,70.79
2023-05-09T21:23:49.470Z,69.27
2023-05-09T21:26:16.803Z,70.61
2023-05-09T21:28:43.772Z,70.13
2023-05-09T21:31:11.582Z,69.85
2023-05-09T21:33:38.702Z,70.18
2023-05-09T21:36:06.247Z,70.29
2023-05-09T21:38:33.183Z,70.37
2023-05-09T21:41:00.145Z,70.62
2023-05-09T21:43:28.495Z,70.42
2023-05-09T21:45:56.152Z,70.52
2023-05-09T21:48:23.110Z,70.23
2023-05-09T21:50:50.210Z,70.39
2023-05-09T21:53:17.136Z,71.05
2023-05-09T21:55:44.059Z,71.13
2023-05-09T21:58:11.018Z,70.44
2023-05-09T22:00:37.939Z,69.66
2023-05-09T22:03:07.252Z,69.83
2023-05-09T22:05:34.254Z,70.14
2023-05-09T22:08:01.155Z,70.74
2023-05-09T22:10:28.085Z,70.35
2023-05-09T22:12:55.059Z,71.29
2023-05-09T22:15:22.172Z,72.89
2023-05-09T22:17:49.120Z,73.33
2023-05-09T22:20:16.581Z,74.28
2023-05-09T22:22:43.765Z,72.78
2023-05-09T22:25:10.765Z,75.53
2023-05-09T22:27:37.761Z,75.42
2023-05-09T22:30:05.958Z,75.45
2023-05-09T22:32:33.039Z,74.73
2023-05-09T22:35:00.110Z,74.88
2023-05-09T22:37:27.111Z,75.47
2023-05-09T22:39:54.063Z,74.59
2023-05-09T22:42:21.084Z,74.83
2023-05-09T22:44:49.950Z,74.49
2023-05-09T22:47:16.887Z,74.73
2023-05-09T22:49:45.659Z,75.69
2023-05-09T22:52:13.080Z,74.91
2023-05-09T22:54:40.523Z,74.08
2023-05-09T22:57:07.509Z,76.16
2023-05-09T22:59:34.550Z,74.52
2023-05-09T23:02:01.529Z,74.97
2023-05-09T23:04:28.492Z,74.72
2023-05-09T23:06:55.520Z,76.07
2023-05-09T23:09:22.481Z,74.36
2023-05-09T23:11:49.462Z,75.77
2023-05-09T23:14:16.534Z,75.62
2023-05-09T23:16:44.039Z,74.78
2023-05-09T23:19:10.988Z,75.38
2023-05-09T23:21:38.086Z,74.25
2023-05-09T23:24:05.251Z,77.20
2023-05-09T23:26:32.633Z,75.75
2023-05-09T23:28:59.604Z,76.00
2023-05-09T23:31:26.633Z,75.56
2023-05-09T23:33:53.613Z,75.51
2023-05-09T23:36:20.534Z,75.55
2023-05-09T23:38:50.496Z,77.05
2023-05-09T23:41:17.474Z,75.14
2023-05-09T23:43:44.618Z,75.53
2023-05-09T23:46:11.591Z,74.40
2023-05-09T23:48:38.979Z,76.49
2023-05-09T23:51:05.942Z,74.72
2023-05-09T23:53:35.017Z,76.48
2023-05-09T23:56:02.832Z,76.01
2023-05-09T23:58:29.791Z,74.54
